createdAt,value
2023-10-09T00:01:02.971Z,100.00
2023-10-09T00:03:31.398Z,100.00
2023-10-09T00:06:00.101Z,100.00
2023-10-09T00:08:31.720Z,100.00
2023-10-09T00:11:14.944Z,100.00
2023-10-09T00:13:50.527Z,100.00
2023-10-09T00:16:34.533Z,100.00
2023-10-09T00:19:15.039Z,100.00
2023-10-09T00:21:43.628Z,100.00
2023-10-09T00:24:17.658Z,100.00
2023-10-09T00:26:47.410Z,100.00
2023-10-09T00:29:23.145Z,100.00
2023-10-09T00:32:04.924Z,100.00
2023-10-09T00:34:40.810Z,100.00
2023-10-09T00:37:12.127Z,100.00
2023-10-09T00:39:45.337Z,100.00
2023-10-09T00:42:28.952Z,100.00
2023-10-09T00:44:57.389Z,100.00
2023-10-09T00:47:35.661Z,100.00
2023-10-09T00:50:12.109Z,100.00
2023-10-09T00:52:44.354Z,100.00
2023-10-09T00:55:22.350Z,100.00
2023-10-09T00:57:58.973Z,100.00
2023-10-09T01:00:46.522Z,100.00
2023-10-09T01:03:22.516Z,100.00
2023-10-09T01:05:58.636Z,100.00
2023-10-09T01:08:31.625Z,100.00
2023-10-09T01:11:10.501Z,100.00
2023-10-09T01:13:53.753Z,100.00
2023-10-09T01:16:24.197Z,100.00
2023-10-09T01:18:58.348Z,100.00
2023-10-09T01:21:28.229Z,100.00
2023-10-09T01:24:09.832Z,100.00
2023-10-09T01:26:46.081Z,100.00
2023-10-09T01:29:19.535Z,100.00
2023-10-09T01:31:56.244Z,100.00
2023-10-09T01:34:27.738Z,100.00
2023-10-09T01:36:57.298Z,100.00
2023-10-09T01:39:28.904Z,100.00
2023-10-09T01:42:00.813Z,100.00
2023-10-09T01:44:31.863Z,100.00
2023-10-09T01:47:00.173Z,100.00
2023-10-09T01:49:32.581Z,100.00
2023-10-09T01:52:04.990Z,100.00
2023-10-09T01:54:38.937Z,100.00
2023-10-09T01:57:13.670Z,100.00
2023-10-09T01:59:45.139Z,100.00
2023-10-09T02:02:27.165Z,100.00
2023-10-09T02:05:05.728Z,100.00
2023-10-09T02:07:41.990Z,100.00
2023-10-09T02:10:23.014Z,100.00
2023-10-09T02:12:55.139Z,100.00
2023-10-09T02:15:42.437Z,100.00
2023-10-09T02:18:20.322Z,100.00
2023-10-09T02:20:57.273Z,100.00
2023-10-09T02:23:31.574Z,100.00
2023-10-09T02:26:05.934Z,100.00
2023-10-09T02:28:36.090Z,100.00
2023-10-09T02:31:12.536Z,100.00
2023-10-09T02:33:41.603Z,100.00
2023-10-09T02:36:11.230Z,100.00
2023-10-09T02:38:42.347Z,100.00
2023-10-09T02:41:24.549Z,100.00
2023-10-09T02:43:56.392Z,100.00
2023-10-09T02:46:31.545Z,100.00
2023-10-09T02:48:59.908Z,100.00
2023-10-09T02:51:37.650Z,100.00
2023-10-09T02:54:19.987Z,100.00
2023-10-09T02:56:57.631Z,100.00
2023-10-09T02:59:26.479Z,100.00
2023-10-09T03:01:55.218Z,100.00
2023-10-09T03:04:25.595Z,100.00
2023-10-09T03:06:58.565Z,100.00
2023-10-09T03:09:30.253Z,100.00
2023-10-09T03:12:04.001Z,100.00
2023-10-09T03:14:36.738Z,100.00
2023-10-09T03:17:05.455Z,100.00
2023-10-09T03:19:39.029Z,100.00
2023-10-09T03:22:11.956Z,100.00
2023-10-09T03:24:43.072Z,100.00
2023-10-09T03:27:15.273Z,100.00
2023-10-09T03:29:50.242Z,100.00
2023-10-09T03:32:20.842Z,100.00
2023-10-09T03:34:52.672Z,100.00
2023-10-09T03:37:36.068Z,100.00
2023-10-09T03:40:07.396Z,100.00
2023-10-09T03:42:38.230Z,100.00
2023-10-09T03:45:14.297Z,100.00
2023-10-09T03:47:44.699Z,100.00
2023-10-09T03:50:25.233Z,100.00
2023-10-09T03:52:56.182Z,100.00
2023-10-09T03:55:29.410Z,100.00
2023-10-09T03:58:01.092Z,100.00
2023-10-09T04:00:32.712Z,100.00
2023-10-09T04:03:01.563Z,100.00
2023-10-09T04:05:30.842Z,100.00
2023-10-09T04:08:00.374Z,100.00
2023-10-09T04:10:54.353Z,100.00
2023-10-09T04:13:34.129Z,100.00
2023-10-09T04:16:11.037Z,100.00
2023-10-09T04:18:41.429Z,100.00
2023-10-09T04:21:20.922Z,100.00
2023-10-09T04:24:06.839Z,100.00
2023-10-09T04:26:36.309Z,100.00
2023-10-09T04:29:07.894Z,100.00
2023-10-09T04:31:38.915Z,100.00
2023-10-09T04:34:29.792Z,100.00
2023-10-09T04:37:01.638Z,100.00
2023-10-09T04:39:49.141Z,100.00
2023-10-09T04:42:34.641Z,100.00
2023-10-09T04:45:34.440Z,100.00
2023-10-09T04:48:08.240Z,100.00
2023-10-09T04:51:07.781Z,100.00
2023-10-09T04:53:45.454Z,100.00
2023-10-09T04:56:17.175Z,100.00
2023-10-09T04:58:47.375Z,100.00
2023-10-09T05:01:37.244Z,100.00
2023-10-09T05:04:19.714Z,100.00
2023-10-09T05:06:57.206Z,100.00
2023-10-09T05:09:25.342Z,100.00
2023-10-09T05:12:01.353Z,100.00
2023-10-09T05:14:28.684Z,100.00
2023-10-09T05:17:02.578Z,100.00
2023-10-09T05:19:56.091Z,100.00
2023-10-09T05:22:38.088Z,100.00
2023-10-09T05:25:18.012Z,100.00
2023-10-09T05:27:52.058Z,100.00
2023-10-09T05:30:35.264Z,100.00
2023-10-09T05:33:22.382Z,100.00
2023-10-09T05:36:07.047Z,100.00
2023-10-09T05:38:37.285Z,100.00
2023-10-09T05:41:19.442Z,100.00
2023-10-09T05:44:05.398Z,100.00
2023-10-09T05:46:38.278Z,100.00
2023-10-09T05:49:21.359Z,100.00
2023-10-09T05:51:54.883Z,100.00
2023-10-09T05:54:40.710Z,100.00
2023-10-09T05:57:25.818Z,100.00
2023-10-09T06:00:11.711Z,100.00
2023-10-09T06:03:11.887Z,100.00
2023-10-09T06:05:52.682Z,100.00
2023-10-09T06:08:26.251Z,100.00
2023-10-09T06:11:08.460Z,100.00
2023-10-09T06:13:47.121Z,100.00
2023-10-09T06:16:42.671Z,100.00
2023-10-09T06:19:14.637Z,100.00
2023-10-09T06:22:02.304Z,100.00
2023-10-09T06:24:43.099Z,100.00
2023-10-09T06:27:14.893Z,100.00
2023-10-09T06:29:52.648Z,100.00
2023-10-09T06:32:39.353Z,100.00
2023-10-09T06:35:17.222Z,100.00
2023-10-09T06:38:05.344Z,100.00
2023-10-09T06:40:52.293Z,100.00
2023-10-09T06:43:29.071Z,100.00
2023-10-09T06:46:20.227Z,100.00
2023-10-09T06:48:57.432Z,100.00
2023-10-09T06:51:44.688Z,100.00
2023-10-09T06:54:17.168Z,100.00
2023-10-09T06:57:02.900Z,100.00
2023-10-09T06:59:43.052Z,100.00
2023-10-09T07:02:26.874Z,100.00
2023-10-09T07:04:57.385Z,100.00
2023-10-09T07:07:26.134Z,100.00
2023-10-09T07:10:13.848Z,100.00
2023-10-09T07:12:45.456Z,100.00
2023-10-09T07:15:40.551Z,100.00
2023-10-09T07:18:24.664Z,100.00
2023-10-09T07:21:02.897Z,100.00
2023-10-09T07:23:34.468Z,97.57
2023-10-09T07:26:24.646Z,98.24
2023-10-09T07:29:02.100Z,97.10
2023-10-09T07:31:41.368Z,96.12
2023-10-09T07:34:23.654Z,95.57
2023-10-09T07:36:57.930Z,95.83
2023-10-09T07:39:35.898Z,96.38
2023-10-09T07:42:34.954Z,94.07
2023-10-09T07:45:13.971Z,94.30
2023-10-09T07:48:02.464Z,91.17
2023-10-09T07:50:39.520Z,91.75
2023-10-09T07:53:28.485Z,93.13
2023-10-09T07:55:59.868Z,94.02
2023-10-09T07:58:31.905Z,94.58
2023-10-09T08:01:17.130Z,93.08
2023-10-09T08:03:50.276Z,93.04
2023-10-09T08:06:36.346Z,90.06
2023-10-09T08:09:40.082Z,89.75
2023-10-09T08:12:31.769Z,89.45
2023-10-09T08:15:22.281Z,88.73
2023-10-09T08:17:55.418Z,87.69
2023-10-09T08:20:26.640Z,88.63
2023-10-09T08:22:57.293Z,88.23
2023-10-09T08:25:30.051Z,87.53
2023-10-09T08:27:58.829Z,87.50
2023-10-09T08:30:50.557Z,88.49
2023-10-09T08:36:16.645Z,86.16
2023-10-09T08:38:46.193Z,86.74
2023-10-09T08:41:18.875Z,87.82
2023-10-09T08:43:52.371Z,87.67
2023-10-09T08:46:28.431Z,87.75
2023-10-09T08:48:58.152Z,86.18
2023-10-09T08:51:27.732Z,86.74
2023-10-09T08:53:56.452Z,86.56
2023-10-09T08:56:25.224Z,84.54
2023-10-09T08:58:54.368Z,83.09
2023-10-09T09:01:23.985Z,81.67
2023-10-09T09:03:57.027Z,79.84
2023-10-09T09:06:25.612Z,79.34
2023-10-09T09:09:00.938Z,80.43
2023-10-09T09:11:36.707Z,79.95
2023-10-09T09:14:07.799Z,78.10
2023-10-09T09:16:38.459Z,77.70
2023-10-09T09:19:19.321Z,77.62
2023-10-09T09:21:56.082Z,78.79
2023-10-09T09:24:34.603Z,77.13
2023-10-09T09:27:19.525Z,79.92
2023-10-09T09:29:54.085Z,82.38
2023-10-09T09:32:37.269Z,82.84
2023-10-09T09:35:19.615Z,82.89
2023-10-09T09:37:56.382Z,83.66
2023-10-09T09:40:34.721Z,81.68
2023-10-09T09:43:08.142Z,82.50
2023-10-09T09:45:37.917Z,79.88
2023-10-09T09:48:08.433Z,82.24
2023-10-09T09:50:44.984Z,80.33
2023-10-09T09:53:17.985Z,80.24
2023-10-09T09:55:57.819Z,81.28
2023-10-09T09:58:28.989Z,83.07
2023-10-09T10:01:17.273Z,84.24
2023-10-09T10:03:50.372Z,84.00
2023-10-09T10:06:21.822Z,84.62
2023-10-09T10:08:52.747Z,86.74
2023-10-09T10:11:53.432Z,83.67
2023-10-09T10:14:30.406Z,84.06
2023-10-09T10:17:07.702Z,87.66
2023-10-09T10:20:25.529Z,84.27
2023-10-09T10:23:19.897Z,84.73
2023-10-09T10:25:51.473Z,85.33
2023-10-09T10:28:40.773Z,85.37
2023-10-09T10:31:11.193Z,86.13
2023-10-09T10:34:12.150Z,83.25
2023-10-09T10:36:44.028Z,80.56
2023-10-09T10:39:22.669Z,78.87
2023-10-09T10:41:59.159Z,78.75
2023-10-09T10:44:39.300Z,80.14
2023-10-09T10:47:24.149Z,81.63
2023-10-09T10:49:53.377Z,82.42
2023-10-09T10:52:36.764Z,82.71
2023-10-09T10:55:40.563Z,80.83
2023-10-09T10:58:24.900Z,80.42
2023-10-09T11:01:20.442Z,81.25
2023-10-09T11:03:58.687Z,78.07
2023-10-09T11:06:36.928Z,76.47
2023-10-09T11:09:22.119Z,75.60
2023-10-09T11:11:56.859Z,78.71
2023-10-09T11:14:25.086Z,78.61
2023-10-09T11:16:59.451Z,77.66
2023-10-09T11:19:33.924Z,76.47
2023-10-09T11:22:21.793Z,76.10
2023-10-09T11:25:12.757Z,75.44
2023-10-09T11:27:51.732Z,73.93
2023-10-09T11:30:34.081Z,71.57
2023-10-09T11:33:15.558Z,71.59
2023-10-09T11:35:46.437Z,72.19
2023-10-09T11:38:22.728Z,70.84
2023-10-09T11:41:07.503Z,71.44
2023-10-09T11:43:52.854Z,71.22
2023-10-09T11:46:49.642Z,67.13
2023-10-09T11:49:33.764Z,67.63
2023-10-09T11:52:25.885Z,67.66
2023-10-09T11:54:57.622Z,70.40
2023-10-09T11:57:31.957Z,69.03
2023-10-09T12:00:02.405Z,68.17
2023-10-09T12:02:32.668Z,68.22
2023-10-09T12:05:01.231Z,67.28
2023-10-09T12:07:29.762Z,67.08
2023-10-09T12:09:58.668Z,65.47
2023-10-09T12:12:28.405Z,64.84
2023-10-09T12:14:56.712Z,64.63
2023-10-09T12:17:27.793Z,64.11
2023-10-09T12:19:57.664Z,64.54
2023-10-09T12:22:28.701Z,61.62
2023-10-09T12:24:58.455Z,61.23
2023-10-09T12:27:26.783Z,62.62
2023-10-09T12:29:58.223Z,59.27
2023-10-09T12:32:27.959Z,58.46
2023-10-09T12:34:57.603Z,59.84
2023-10-09T12:37:26.493Z,60.49
2023-10-09T12:39:57.456Z,61.70
2023-10-09T12:42:25.921Z,59.53
2023-10-09T12:44:54.233Z,55.97
2023-10-09T12:47:22.537Z,57.17
2023-10-09T12:49:55.311Z,55.79
2023-10-09T12:52:31.068Z,55.65
2023-10-09T12:54:59.604Z,55.33
2023-10-09T12:57:27.806Z,54.53
2023-10-09T12:59:57.331Z,53.67
2023-10-09T13:02:31.066Z,52.79
2023-10-09T13:05:04.854Z,54.08
2023-10-09T13:07:33.455Z,54.34
2023-10-09T13:10:13.490Z,54.27
2023-10-09T13:12:43.031Z,54.00
2023-10-09T13:15:12.781Z,55.36
2023-10-09T13:17:42.961Z,56.01
2023-10-09T13:20:15.244Z,57.54
2023-10-09T13:22:43.892Z,57.04
2023-10-09T13:25:31.507Z,56.13
2023-10-09T13:28:05.379Z,55.80
2023-10-09T13:30:41.324Z,54.19
2023-10-09T13:33:18.541Z,52.96
2023-10-09T13:35:52.025Z,53.27
2023-10-09T13:38:20.671Z,53.46
2023-10-09T13:40:50.909Z,53.30
2023-10-09T13:43:19.182Z,54.12
2023-10-09T13:45:51.534Z,52.68
2023-10-09T13:48:22.500Z,52.23
2023-10-09T13:51:00.045Z,52.91
2023-10-09T13:53:28.508Z,53.88
2023-10-09T13:55:57.678Z,54.33
2023-10-09T13:58:26.231Z,56.57
2023-10-09T14:00:55.018Z,56.61
2023-10-09T14:03:25.945Z,55.98
2023-10-09T14:05:58.442Z,56.39
2023-10-09T14:08:27.612Z,56.83
2023-10-09T14:10:56.298Z,55.76
2023-10-09T14:13:29.931Z,55.60
2023-10-09T14:16:01.436Z,53.99
2023-10-09T14:18:31.434Z,53.66
2023-10-09T14:21:17.261Z,56.37
2023-10-09T14:23:47.993Z,57.33
2023-10-09T14:26:16.526Z,59.02
2023-10-09T14:28:45.238Z,61.38
2023-10-09T14:31:16.110Z,64.30
2023-10-09T14:33:49.542Z,65.58
2023-10-09T14:36:21.669Z,66.54
2023-10-09T14:38:53.688Z,67.45
2023-10-09T14:41:24.786Z,67.89
2023-10-09T14:43:53.667Z,68.63
2023-10-09T14:46:26.419Z,68.83
2023-10-09T14:48:55.371Z,69.45
2023-10-09T14:51:29.106Z,75.34
2023-10-09T14:53:59.915Z,74.40
2023-10-09T14:56:31.810Z,75.09
2023-10-09T14:59:00.942Z,72.53
2023-10-09T15:01:30.642Z,71.66
2023-10-09T15:04:00.899Z,71.76
2023-10-09T15:06:31.617Z,72.93
2023-10-09T15:09:01.814Z,76.02
2023-10-09T15:11:30.886Z,77.55
2023-10-09T15:14:00.549Z,79.24
2023-10-09T15:16:31.830Z,79.60
2023-10-09T15:19:03.313Z,82.16
2023-10-09T15:21:34.178Z,84.05
2023-10-09T15:24:02.575Z,84.89
2023-10-09T15:26:34.820Z,86.17
2023-10-09T15:29:07.821Z,85.86
2023-10-09T15:31:36.617Z,87.65
2023-10-09T15:34:09.776Z,88.92
2023-10-09T15:36:41.236Z,89.68
2023-10-09T15:39:12.942Z,89.87
2023-10-09T15:41:41.437Z,90.71
2023-10-09T15:44:09.898Z,91.85
2023-10-09T15:46:38.183Z,93.20
2023-10-09T15:49:08.196Z,92.69
2023-10-09T15:51:36.658Z,92.39
2023-10-09T15:54:06.534Z,93.47
2023-10-09T15:56:36.226Z,93.87
2023-10-09T15:59:06.764Z,95.35
2023-10-09T16:01:36.939Z,96.24
2023-10-09T16:04:07.450Z,94.99
2023-10-09T16:06:35.902Z,96.37
2023-10-09T16:09:07.042Z,95.94
2023-10-09T16:11:35.501Z,97.35
2023-10-09T16:14:07.093Z,97.50
2023-10-09T16:16:35.433Z,98.81
2023-10-09T16:19:05.791Z,99.79
2023-10-09T16:21:33.993Z,99.13
2023-10-09T16:24:02.280Z,99.10
2023-10-09T16:26:39.420Z,98.71
2023-10-09T16:29:09.185Z,100.00
2023-10-09T16:31:41.107Z,100.00
2023-10-09T16:34:10.318Z,100.00
2023-10-09T16:36:39.155Z,99.59
2023-10-09T16:39:19.639Z,100.00
2023-10-09T16:41:50.045Z,100.00
2023-10-09T16:44:18.913Z,100.00
2023-10-09T16:46:47.994Z,100.00
2023-10-09T16:49:16.336Z,100.00
2023-10-09T16:51:45.921Z,100.00
2023-10-09T16:54:16.692Z,100.00
2023-10-09T16:56:48.798Z,100.00
2023-10-09T16:59:18.550Z,100.00
2023-10-09T17:01:47.170Z,100.00
2023-10-09T17:04:18.413Z,100.00
2023-10-09T17:06:48.388Z,100.00
2023-10-09T17:09:16.637Z,100.00
2023-10-09T17:11:45.198Z,100.00
2023-10-09T17:14:17.374Z,100.00
2023-10-09T17:16:48.655Z,100.00
2023-10-09T17:19:17.032Z,100.00
2023-10-09T17:21:45.303Z,100.00
2023-10-09T17:24:13.938Z,100.00
2023-10-09T17:26:46.632Z,100.00
2023-10-09T17:29:18.160Z,100.00
2023-10-09T17:31:48.319Z,100.00
2023-10-09T17:34:19.113Z,100.00
2023-10-09T17:39:14.053Z,100.00
2023-10-09T17:41:42.322Z,100.00
2023-10-09T17:44:10.588Z,100.00
2023-10-09T17:46:39.294Z,100.00
2023-10-09T17:49:08.976Z,100.00
2023-10-09T17:51:37.703Z,100.00
2023-10-09T17:54:07.469Z,100.00
2023-10-09T17:56:38.667Z,100.00
2023-10-09T17:59:15.173Z,100.00
2023-10-09T18:01:43.703Z,100.00
2023-10-09T18:04:20.244Z,100.00
2023-10-09T18:06:51.676Z,100.00
2023-10-09T18:09:20.212Z,100.00
2023-10-09T18:11:50.411Z,100.00
2023-10-09T18:14:19.838Z,100.00
2023-10-09T18:16:49.267Z,100.00
2023-10-09T18:19:21.594Z,100.00
2023-10-09T18:21:52.009Z,100.00
2023-10-09T18:24:21.681Z,100.00
2023-10-09T18:26:51.402Z,100.00
2023-10-09T18:29:19.733Z,100.00
2023-10-09T18:31:50.998Z,100.00
2023-10-09T18:34:22.619Z,100.00
2023-10-09T18:36:52.981Z,100.00
2023-10-09T18:39:24.116Z,100.00
2023-10-09T18:41:55.560Z,100.00
2023-10-09T18:44:31.986Z,100.00
2023-10-09T18:47:01.025Z,100.00
2023-10-09T18:49:31.168Z,100.00
2023-10-09T18:52:01.016Z,100.00
2023-10-09T18:54:31.469Z,100.00
2023-10-09T18:56:59.750Z,100.00
2023-10-09T18:59:30.800Z,100.00
2023-10-09T19:01:59.300Z,100.00
2023-10-09T19:04:29.600Z,100.00
2023-10-09T19:07:00.791Z,100.00
2023-10-09T19:09:29.006Z,100.00
2023-10-09T19:11:58.691Z,100.00
2023-10-09T19:14:30.159Z,100.00
2023-10-09T19:17:01.189Z,100.00
2023-10-09T19:19:29.956Z,100.00
2023-10-09T19:22:00.982Z,100.00
2023-10-09T19:24:33.247Z,100.00
2023-10-09T19:27:03.219Z,100.00
2023-10-09T19:29:31.758Z,100.00
2023-10-09T19:32:00.093Z,100.00
2023-10-09T19:34:28.727Z,100.00
2023-10-09T19:36:57.628Z,100.00
2023-10-09T19:39:32.866Z,100.00
2023-10-09T19:42:01.987Z,100.00
2023-10-09T19:44:30.941Z,100.00
2023-10-09T19:47:00.100Z,100.00
2023-10-09T19:49:30.600Z,100.00
2023-10-09T19:51:59.148Z,100.00
2023-10-09T19:54:29.876Z,100.00
2023-10-09T19:56:59.128Z,100.00
2023-10-09T19:59:27.848Z,100.00
2023-10-09T20:01:57.311Z,100.00
2023-10-09T20:04:26.753Z,100.00
2023-10-09T20:06:55.340Z,100.00
2023-10-09T20:09:23.731Z,100.00
2023-10-09T20:11:53.686Z,100.00
2023-10-09T20:14:22.015Z,100.00
2023-10-09T20:16:50.528Z,100.00
2023-10-09T20:19:18.923Z,100.00
2023-10-09T20:21:47.927Z,100.00
2023-10-09T20:24:16.257Z,100.00
2023-10-09T20:26:44.510Z,100.00
2023-10-09T20:29:15.646Z,100.00
2023-10-09T20:31:46.375Z,100.00
2023-10-09T20:34:15.382Z,100.00
2023-10-09T20:36:45.212Z,100.00
2023-10-09T20:39:17.977Z,100.00
2023-10-09T20:41:48.266Z,100.00
2023-10-09T20:44:18.622Z,100.00
2023-10-09T20:46:49.327Z,100.00
2023-10-09T20:49:18.169Z,100.00
2023-10-09T20:51:57.196Z,100.00
2023-10-09T20:54:26.793Z,100.00
2023-10-09T20:56:55.173Z,100.00
2023-10-09T20:59:25.068Z,100.00
2023-10-09T21:01:53.902Z,100.00
2023-10-09T21:04:22.250Z,100.00
2023-10-09T21:06:50.842Z,100.00
2023-10-09T21:09:58.982Z,100.00
2023-10-09T21:12:27.671Z,100.00
2023-10-09T21:14:59.631Z,100.00
2023-10-09T21:17:28.063Z,100.00
2023-10-09T21:19:56.624Z,100.00
2023-10-09T21:22:25.686Z,100.00
2023-10-09T21:24:54.568Z,100.00
2023-10-09T21:27:22.718Z,100.00
2023-10-09T21:29:51.386Z,100.00
2023-10-09T21:32:21.039Z,100.00
2023-10-09T21:34:49.321Z,100.00
2023-10-09T21:37:20.530Z,100.00
2023-10-09T21:39:52.792Z,100.00
2023-10-09T21:42:20.996Z,100.00
2023-10-09T21:44:49.200Z,100.00
2023-10-09T21:47:17.355Z,100.00
2023-10-09T21:49:47.004Z,100.00
2023-10-09T21:52:15.178Z,100.00
2023-10-09T21:54:43.432Z,100.00
2023-10-09T21:57:11.781Z,100.00
2023-10-09T21:59:41.938Z,100.00
2023-10-09T22:02:12.058Z,100.00
2023-10-09T22:04:41.870Z,100.00
2023-10-09T22:07:19.147Z,100.00
2023-10-09T22:09:57.999Z,100.00
2023-10-09T22:12:26.546Z,100.00
2023-10-09T22:14:55.066Z,100.00
2023-10-09T22:17:23.318Z,100.00
2023-10-09T22:19:51.702Z,100.00
2023-10-09T22:22:23.696Z,100.00
2023-10-09T22:24:51.992Z,100.00
2023-10-09T22:27:25.211Z,100.00
2023-10-09T22:29:54.623Z,100.00
2023-10-09T22:32:28.812Z,100.00
2023-10-09T22:34:58.870Z,100.00
2023-10-09T22:37:32.531Z,100.00
2023-10-09T22:40:01.470Z,100.00
2023-10-09T22:42:30.468Z,100.00
2023-10-09T22:44:58.663Z,100.00
2023-10-09T22:47:34.268Z,100.00
2023-10-09T22:50:18.986Z,100.00
2023-10-09T22:52:49.363Z,100.00
2023-10-09T22:55:18.959Z,100.00
2023-10-09T22:57:47.708Z,100.00
2023-10-09T23:00:37.900Z,100.00
2023-10-09T23:03:10.718Z,100.00
2023-10-09T23:05:45.317Z,100.00
2023-10-09T23:08:20.298Z,100.00
2023-10-09T23:10:53.567Z,100.00
2023-10-09T23:13:35.035Z,100.00
2023-10-09T23:16:15.757Z,100.00
2023-10-09T23:19:06.738Z,100.00
2023-10-09T23:21:48.949Z,100.00
2023-10-09T23:24:27.962Z,100.00
2023-10-09T23:26:56.936Z,100.00
2023-10-09T23:29:31.640Z,100.00
2023-10-09T23:32:21.080Z,100.00
2023-10-09T23:34:56.099Z,100.00
2023-10-09T23:37:41.002Z,100.00
2023-10-09T23:40:18.193Z,100.00
2023-10-09T23:42:58.773Z,100.00
2023-10-09T23:45:32.850Z,100.00
2023-10-09T23:48:01.471Z,100.00
2023-10-09T23:50:32.845Z,100.00
2023-10-09T23:53:05.608Z,100.00
2023-10-09T23:55:43.254Z,100.00
2023-10-09T23:58:21.255Z,100.00
